Time;durP1;ratioP1;P1;durP2;ratioP2;P2;SDS_P1;SDS_P2;PMS_P1;PMS_P2;Temp;Humidity;BMP_temperature;BMP_pressure;BME280_temperature;BME280_humidity;BME280_pressure;Samples;Min_cycle;Max_cycle;Signal;HPM_P1;HPM_P2
2023/08/24 00:01:33;;;;;;;53.38;47.80;;;14.50;99.90;;;;;;5026611;28;20048;-75
2023/08/24 00:04:00;;;;;;;51.22;46.25;;;14.60;99.90;;;;;;5028956;28;20099;-75
2023/08/24 00:06:27;;;;;;;48.70;44.05;;;14.70;99.90;;;;;;5014013;28;20045;-75
2023/08/24 00:08:54;;;;;;;42.67;38.97;;;14.70;99.90;;;;;;5006485;28;20110;-76
2023/08/24 00:11:21;;;;;;;40.63;37.00;;;14.50;99.90;;;;;;5026606;28;20048;-76
2023/08/24 00:13:52;;;;;;;39.83;36.25;;;14.40;99.90;;;;;;5027231;28;20053;-76
2023/08/24 00:16:20;;;;;;;38.95;35.33;;;14.30;99.90;;;;;;5013516;28;20036;-75
2023/08/24 00:18:47;;;;;;;41.63;37.80;;;14.30;99.90;;;;;;5026644;28;20037;-76
2023/08/24 00:21:16;;;;;;;41.95;38.22;;;14.20;99.90;;;;;;5011670;28;20055;-75
2023/08/24 00:23:44;;;;;;;46.13;41.78;;;14.30;99.90;;;;;;5003642;28;20081;-76
2023/08/24 00:26:11;;;;;;;45.60;41.65;;;14.30;99.90;;;;;;5011298;28;20048;-76
2023/08/24 00:28:38;;;;;;;48.15;43.72;;;14.30;99.90;;;;;;5024284;28;20049;-75
2023/08/24 00:31:04;;;;;;;49.58;44.92;;;14.30;99.90;;;;;;5009606;28;20053;-76
2023/08/24 00:33:31;;;;;;;47.58;43.15;;;14.30;99.90;;;;;;5008291;28;20059;-75
2023/08/24 00:36:02;;;;;;;47.55;43.22;;;14.20;99.90;;;;;;5026590;28;20052;-75
2023/08/24 00:38:29;;;;;;;49.40;44.33;;;14.20;99.90;;;;;;5026401;28;20037;-76
2023/08/24 00:40:58;;;;;;;52.25;47.10;;;14.20;99.90;;;;;;5009627;28;20706;-77
2023/08/24 00:43:27;;;;;;;51.40;46.53;;;14.30;99.90;;;;;;5023994;28;20663;-75
2023/08/24 00:46:00;;;;;;;48.58;44.10;;;14.30;99.90;;;;;;5020898;28;20055;-75
2023/08/24 00:48:28;;;;;;;46.38;41.92;;;14.30;99.90;;;;;;5010223;28;20108;-76
2023/08/24 00:50:58;;;;;;;47.47;42.83;;;14.30;99.90;;;;;;5005315;28;20133;-75
2023/08/24 00:53:28;;;;;;;47.00;42.55;;;14.30;99.90;;;;;;5025733;28;20102;-78
2023/08/24 00:55:55;;;;;;;49.75;45.10;;;14.20;99.90;;;;;;5008686;28;20090;-75
2023/08/24 00:58:24;;;;;;;51.10;46.22;;;14.10;99.90;;;;;;5026557;28;20052;-77
2023/08/24 01:00:55;;;;;;;53.35;48.08;;;14.20;99.90;;;;;;5008410;28;20041;-77
2023/08/24 01:03:23;;;;;;;54.42;48.83;;;14.20;99.90;;;;;;5027690;28;20045;-77
2023/08/24 01:05:51;;;;;;;52.20;47.00;;;14.20;99.90;;;;;;5008213;28;20055;-75
2023/08/24 01:08:19;;;;;;;57.38;51.20;;;14.00;99.90;;;;;;5021199;28;20047;-77
2023/08/24 01:11:08;;;;;;;59.40;53.35;;;14.00;99.90;;;;;;5007085;28;20045;-75
2023/08/24 01:14:02;;;;;;;65.75;58.50;;;13.90;99.90;;;;;;5003551;28;20111;-77
2023/08/24 01:16:32;;;;;;;63.78;56.90;;;14.00;99.90;;;;;;5025390;28;20131;-75
2023/08/24 01:19:00;;;;;;;60.78;54.25;;;14.00;99.90;;;;;;5019377;28;20060;-77
2023/08/24 01:21:28;;;;;;;57.80;52.08;;;14.10;99.90;;;;;;5024391;28;20037;-75
2023/08/24 01:24:26;;;;;;;57.58;51.53;;;13.90;99.90;;;;;;5018459;28;20059;-75
2023/08/24 01:26:54;;;;;;;56.20;50.70;;;14.00;99.90;;;;;;5007214;28;20048;-74
2023/08/24 01:29:21;;;;;;;55.80;50.45;;;14.10;99.90;;;;;;5004735;28;20041;-75
2023/08/24 01:31:49;;;;;;;52.38;47.35;;;14.10;99.90;;;;;;5021182;28;20255;-76
2023/08/24 01:34:16;;;;;;;51.22;46.15;;;14.00;99.90;;;;;;5014223;28;20071;-75
2023/08/24 01:36:44;;;;;;;47.97;43.60;;;13.90;99.90;;;;;;5012500;28;20451;-77
2023/08/24 01:39:14;;;;;;;47.40;43.20;;;13.80;99.90;;;;;;5010551;28;20139;-76
2023/08/24 01:41:44;;;;;;;49.13;44.55;;;13.80;99.90;;;;;;5023991;28;20738;-75
2023/08/24 01:44:15;;;;;;;49.20;44.17;;;13.80;99.90;;;;;;5026011;28;20063;-75
2023/08/24 01:46:43;;;;;;;51.90;47.00;;;13.90;99.90;;;;;;5027642;28;20049;-75
2023/08/24 01:49:13;;;;;;;54.92;49.40;;;13.90;99.90;;;;;;5028091;28;20667;-75
2023/08/24 01:51:42;;;;;;;55.00;49.80;;;13.90;99.90;;;;;;5025598;28;20048;-75
2023/08/24 01:54:09;;;;;;;55.58;50.17;;;13.90;99.90;;;;;;5007139;28;20119;-75
2023/08/24 01:56:36;;;;;;;58.47;52.97;;;13.80;99.90;;;;;;4998244;28;20072;-76
2023/08/24 01:59:03;;;;;;;55.15;49.75;;;13.80;99.90;;;;;;4986024;28;20061;-76
2023/08/24 02:01:30;;;;;;;50.85;45.90;;;13.70;99.90;;;;;;5004517;28;20037;-75
2023/08/24 02:03:56;;;;;;;50.63;45.58;;;13.60;99.90;;;;;;4989075;28;20052;-76
2023/08/24 02:06:23;;;;;;;53.85;49.03;;;13.60;99.90;;;;;;5028945;28;20056;-75
2023/08/24 02:08:50;;;;;;;53.08;48.47;;;13.80;99.90;;;;;;5008989;28;20111;-76
2023/08/24 02:11:16;;;;;;;56.50;51.03;;;13.70;99.90;;;;;;5004024;28;20069;-75
2023/08/24 02:13:44;;;;;;;57.25;51.47;;;13.80;99.90;;;;;;5010006;28;20045;-76
2023/08/24 02:16:12;;;;;;;55.20;49.70;;;13.90;99.90;;;;;;5024466;28;20142;-75
2023/08/24 02:18:39;;;;;;;51.95;47.03;;;13.70;99.90;;;;;;5005557;28;20073;-76
2023/08/24 02:21:11;;;;;;;48.33;43.92;;;13.60;99.90;;;;;;5006042;28;20079;-76
2023/08/24 02:23:39;;;;;;;49.88;45.17;;;13.60;99.90;;;;;;5003362;28;20428;-76
2023/08/24 02:26:06;;;;;;;48.45;44.40;;;13.50;99.90;;;;;;5025781;28;20122;-76
2023/08/24 02:28:37;;;;;;;45.25;41.55;;;13.40;99.90;;;;;;5001961;28;20049;-75
2023/08/24 02:31:05;;;;;;;47.55;43.30;;;13.40;99.90;;;;;;5024292;28;20049;-75
2023/08/24 02:33:33;;;;;;;49.05;43.95;;;13.40;99.90;;;;;;5026823;28;20045;-75
2023/08/24 02:36:00;;;;;;;51.55;46.85;;;13.50;99.90;;;;;;5008539;28;20055;-76
2023/08/24 02:38:28;;;;;;;51.78;46.83;;;13.60;99.90;;;;;;5012988;28;20042;-75
2023/08/24 02:41:06;;;;;;;53.17;48.45;;;13.40;99.90;;;;;;5022599;28;20037;-75
2023/08/24 02:43:34;;;;;;;50.17;45.65;;;13.40;99.90;;;;;;5009372;28;20041;-75
2023/08/24 02:46:05;;;;;;;50.13;45.25;;;13.40;99.90;;;;;;5008420;28;20041;-75
2023/08/24 02:48:33;;;;;;;47.95;43.53;;;13.40;99.90;;;;;;5010783;28;20511;-76
2023/08/24 02:51:03;;;;;;;52.33;47.20;;;13.40;99.90;;;;;;5009775;28;20049;-75
2023/08/24 02:53:30;;;;;;;51.67;46.50;;;13.40;99.90;;;;;;5008422;28;20720;-75
2023/08/24 02:55:57;;;;;;;51.10;46.08;;;13.50;99.90;;;;;;5009125;28;20514;-75
2023/08/24 02:58:24;;;;;;;51.70;46.85;;;13.50;99.90;;;;;;5025753;28;20122;-76
2023/08/24 03:00:51;;;;;;;57.22;51.55;;;13.40;99.90;;;;;;5006617;28;20072;-75
2023/08/24 03:03:17;;;;;;;59.28;52.92;;;13.50;99.90;;;;;;5023691;28;20045;-75
2023/08/24 03:05:59;;;;;;;62.90;56.25;;;13.50;99.90;;;;;;4992607;28;20072;-75
2023/08/24 03:08:29;;;;;;;62.30;54.58;;;13.50;99.90;;;;;;5026238;28;20574;-75
2023/08/24 03:10:56;;;;;;;59.10;53.00;;;13.60;99.90;;;;;;4987985;28;20065;-76
2023/08/24 03:13:23;;;;;;;58.78;52.90;;;13.50;99.90;;;;;;5013462;28;20764;-75
2023/08/24 03:15:52;;;;;;;57.05;51.22;;;13.60;99.90;;;;;;5011010;28;20116;-76
2023/08/24 03:18:20;;;;;;;57.13;51.30;;;13.50;99.90;;;;;;5013446;28;20075;-75
2023/08/24 03:20:48;;;;;;;53.40;48.20;;;13.40;99.90;;;;;;5010238;28;20675;-76
2023/08/24 03:23:16;;;;;;;50.55;45.55;;;13.20;99.90;;;;;;5029900;28;20045;-75
2023/08/24 03:25:43;;;;;;;51.13;46.13;;;13.30;99.90;;;;;;5009469;28;20711;-76
2023/08/24 03:28:10;;;;;;;50.28;45.60;;;13.20;99.90;;;;;;5022269;28;20052;-75
2023/08/24 03:30:39;;;;;;;48.15;43.63;;;13.10;99.90;;;;;;5014415;28;20107;-76
2023/08/24 03:33:07;;;;;;;50.83;46.10;;;13.10;99.90;;;;;;5004928;28;20137;-75
2023/08/24 03:35:34;;;;;;;46.10;42.03;;;13.10;99.90;;;;;;5015477;28;20499;-76
2023/08/24 03:38:01;;;;;;;46.80;42.60;;;13.00;99.90;;;;;;5007181;28;20033;-75
2023/08/24 03:40:27;;;;;;;47.92;43.60;;;13.10;99.90;;;;;;4998450;28;21927;-76
2023/08/24 03:42:54;;;;;;;49.55;45.22;;;13.20;99.90;;;;;;5007204;28;20524;-76
2023/08/24 03:45:22;;;;;;;53.25;48.13;;;13.20;99.90;;;;;;5027334;28;20041;-76
2023/08/24 03:47:49;;;;;;;54.67;49.55;;;13.30;99.90;;;;;;5024546;28;20041;-76
2023/08/24 03:50:17;;;;;;;51.75;46.63;;;13.50;99.90;;;;;;5014179;28;20431;-75
2023/08/24 03:52:44;;;;;;;51.53;46.13;;;13.50;99.90;;;;;;4995853;28;20071;-77
2023/08/24 03:55:11;;;;;;;51.97;46.20;;;13.40;99.90;;;;;;5009370;28;20045;-75
2023/08/24 03:57:38;;;;;;;50.40;45.40;;;13.30;99.90;;;;;;5007716;28;20746;-75
2023/08/24 04:00:11;;;;;;;50.45;45.47;;;13.30;99.90;;;;;;5007613;28;20496;-76
2023/08/24 04:02:41;;;;;;;52.00;46.47;;;13.40;99.90;;;;;;5014124;28;20052;-76
2023/08/24 04:05:13;;;;;;;51.00;45.97;;;13.40;99.90;;;;;;5010186;28;20102;-76
2023/08/24 04:07:41;;;;;;;49.88;45.08;;;13.40;99.90;;;;;;5007305;28;20515;-75
2023/08/24 04:10:08;;;;;;;48.05;43.45;;;13.40;99.90;;;;;;4994813;28;20160;-76
2023/08/24 04:12:35;;;;;;;48.22;43.63;;;13.50;99.90;;;;;;4988776;28;20041;-76
2023/08/24 04:15:03;;;;;;;45.22;40.63;;;13.50;99.90;;;;;;5002275;28;20053;-75
2023/08/24 04:17:30;;;;;;;44.40;40.45;;;13.40;99.90;;;;;;5005613;28;20158;-76
2023/08/24 04:19:56;;;;;;;46.33;41.90;;;13.30;99.90;;;;;;5028287;28;20103;-75
2023/08/24 04:22:24;;;;;;;44.28;40.15;;;13.40;99.90;;;;;;5013345;28;20041;-76
2023/08/24 04:24:50;;;;;;;46.53;42.13;;;13.50;99.90;;;;;;5004357;28;20083;-76
2023/08/24 04:27:18;;;;;;;47.53;43.10;;;13.40;99.90;;;;;;5009479;28;20157;-76
2023/08/24 04:29:44;;;;;;;43.78;39.97;;;13.40;99.90;;;;;;5025159;28;20656;-76
2023/08/24 04:32:11;;;;;;;46.13;42.00;;;13.50;99.90;;;;;;5013050;28;20049;-76
2023/08/24 04:34:38;;;;;;;41.10;37.28;;;13.50;99.90;;;;;;5027540;28;20029;-76
2023/08/24 04:37:06;;;;;;;36.22;33.33;;;13.40;99.90;;;;;;5026320;28;20091;-76
2023/08/24 04:39:32;;;;;;;34.53;31.83;;;13.30;99.90;;;;;;5015117;28;20041;-76
2023/08/24 04:41:59;;;;;;;35.15;32.13;;;13.40;99.90;;;;;;5008717;28;20634;-76
2023/08/24 04:44:26;;;;;;;33.50;30.45;;;13.30;99.90;;;;;;5026384;28;20049;-75
2023/08/24 04:46:56;;;;;;;35.30;32.28;;;13.40;99.90;;;;;;5022683;28;20080;-76
2023/08/24 04:49:22;;;;;;;35.13;32.10;;;13.40;99.90;;;;;;5007751;28;20057;-76
2023/08/24 04:51:49;;;;;;;36.15;33.15;;;13.50;99.90;;;;;;5021750;28;20038;-76
2023/08/24 04:54:16;;;;;;;34.75;31.83;;;13.70;99.90;;;;;;5023078;28;20103;-76
2023/08/24 04:56:42;;;;;;;38.17;34.53;;;13.80;99.90;;;;;;5027490;28;20037;-76
2023/08/24 04:59:10;;;;;;;38.42;34.90;;;13.90;99.90;;;;;;5021822;28;20171;-76
2023/08/24 05:01:37;;;;;;;38.75;35.40;;;14.00;99.90;;;;;;4991147;28;20046;-75
2023/08/24 05:04:04;;;;;;;34.08;31.27;;;14.10;99.90;;;;;;5000460;28;20065;-76
2023/08/24 05:06:30;;;;;;;36.30;33.13;;;14.10;99.90;;;;;;5010680;28;20076;-76
2023/08/24 05:08:57;;;;;;;33.15;30.42;;;14.30;99.90;;;;;;5019819;28;20053;-76
2023/08/24 05:11:28;;;;;;;33.47;30.67;;;14.30;99.90;;;;;;5006426;28;20106;-76
2023/08/24 05:13:56;;;;;;;31.90;29.17;;;14.40;99.90;;;;;;4995403;28;20542;-76
2023/08/24 05:16:23;;;;;;;31.08;28.48;;;14.40;99.90;;;;;;5010449;28;20765;-76
2023/08/24 05:18:50;;;;;;;32.80;29.70;;;14.60;99.90;;;;;;5025099;28;20053;-75
2023/08/24 05:21:16;;;;;;;32.13;29.50;;;14.70;99.90;;;;;;5008524;28;20045;-76
2023/08/24 05:23:43;;;;;;;31.30;28.80;;;14.90;99.90;;;;;;5003340;28;20038;-76
2023/08/24 05:26:10;;;;;;;32.35;29.65;;;15.10;99.90;;;;;;5014254;28;20132;-76
2023/08/24 05:28:37;;;;;;;32.58;29.40;;;15.10;99.90;;;;;;5020910;28;20688;-76
2023/08/24 05:31:04;;;;;;;30.25;27.60;;;15.10;99.90;;;;;;4985928;28;20049;-76
2023/08/24 05:33:33;;;;;;;30.17;27.25;;;15.10;99.90;;;;;;5015734;28;20138;-76
2023/08/24 05:36:00;;;;;;;30.88;28.10;;;15.00;99.90;;;;;;5025699;28;20037;-76
2023/08/24 05:38:26;;;;;;;31.48;28.45;;;15.00;99.90;;;;;;5021395;28;20048;-76
2023/08/24 05:40:53;;;;;;;32.03;29.08;;;15.20;99.90;;;;;;5018722;28;20044;-76
2023/08/24 05:43:20;;;;;;;28.08;25.67;;;15.30;99.90;;;;;;5011599;28;20048;-76
2023/08/24 05:45:48;;;;;;;30.48;27.83;;;15.40;99.90;;;;;;5013734;28;20091;-76
2023/08/24 05:48:15;;;;;;;31.10;28.13;;;15.60;99.90;;;;;;5008929;28;20094;-76
2023/08/24 05:50:44;;;;;;;33.60;30.65;;;15.70;99.90;;;;;;5007767;28;20049;-76
2023/08/24 05:53:11;;;;;;;30.88;28.40;;;15.60;99.90;;;;;;4985376;28;20036;-76
2023/08/24 05:55:38;;;;;;;31.08;28.48;;;15.70;99.90;;;;;;5009094;28;20045;-76
2023/08/24 05:58:05;;;;;;;32.85;29.98;;;15.80;99.90;;;;;;5006325;28;20136;-76
2023/08/24 06:00:32;;;;;;;33.08;29.98;;;15.90;99.90;;;;;;5022441;28;20072;-76
2023/08/24 06:02:59;;;;;;;31.20;28.52;;;15.90;99.90;;;;;;5017960;28;20057;-76
2023/08/24 06:05:26;;;;;;;30.98;28.52;;;15.90;99.90;;;;;;5023478;28;20144;-76
2023/08/24 06:07:53;;;;;;;32.58;29.95;;;15.90;99.90;;;;;;5010264;28;20041;-76
2023/08/24 06:10:20;;;;;;;33.72;30.58;;;16.00;99.90;;;;;;5020457;28;21099;-75
2023/08/24 06:12:47;;;;;;;31.02;28.40;;;16.10;99.90;;;;;;5022121;28;20041;-76
2023/08/24 06:15:13;;;;;;;29.65;27.25;;;16.00;99.90;;;;;;5007981;28;20073;-76
2023/08/24 06:17:41;;;;;;;28.63;26.48;;;16.00;99.90;;;;;;5026546;28;20115;-75
2023/08/24 06:20:11;;;;;;;31.73;29.10;;;16.20;99.90;;;;;;5021986;28;20786;-76
2023/08/24 06:22:38;;;;;;;31.80;29.08;;;16.30;99.90;;;;;;5030746;28;20087;-76
2023/08/24 06:25:05;;;;;;;33.08;30.27;;;16.40;99.90;;;;;;5008154;28;20064;-76
2023/08/24 06:27:34;;;;;;;33.58;30.77;;;16.40;99.90;;;;;;5008353;28;20664;-76
2023/08/24 06:30:01;;;;;;;36.85;33.35;;;16.40;99.90;;;;;;5002430;28;20045;-76
2023/08/24 06:32:27;;;;;;;35.05;31.85;;;16.50;99.90;;;;;;5022387;28;20921;-75
2023/08/24 06:34:55;;;;;;;36.70;33.70;;;16.50;99.90;;;;;;5011847;28;20713;-75
2023/08/24 06:37:22;;;;;;;34.60;31.77;;;16.60;99.90;;;;;;5019701;28;20050;-75
2023/08/24 06:39:49;;;;;;;36.45;33.25;;;16.50;99.90;;;;;;5046193;28;20047;-75
2023/08/24 06:42:15;;;;;;;33.03;30.25;;;16.60;99.90;;;;;;5020396;28;20037;-75
2023/08/24 06:44:42;;;;;;;36.78;33.35;;;16.60;99.90;;;;;;5022988;28;20041;-77
2023/08/24 06:47:09;;;;;;;36.38;33.03;;;16.50;99.90;;;;;;5008290;28;20133;-77
2023/08/24 06:49:39;;;;;;;34.90;31.98;;;16.60;99.90;;;;;;5007268;28;20064;-78
2023/08/24 06:52:24;;;;;;;33.63;30.90;;;16.60;99.90;;;;;;5026101;28;20055;-80
2023/08/24 06:54:53;;;;;;;35.10;31.83;;;16.70;99.90;;;;;;5023725;28;20048;-80
2023/08/24 06:57:20;;;;;;;32.22;29.45;;;17.00;99.90;;;;;;5021548;28;20260;-80
2023/08/24 06:59:47;;;;;;;31.42;28.73;;;17.00;99.90;;;;;;5025451;28;20045;-78
2023/08/24 07:02:14;;;;;;;30.20;27.30;;;17.00;99.90;;;;;;5029389;28;20072;-78
2023/08/24 07:04:40;;;;;;;27.67;25.35;;;17.10;99.90;;;;;;5035249;28;20110;-78
2023/08/24 07:07:07;;;;;;;27.35;25.20;;;17.20;99.90;;;;;;5014102;28;20056;-78
2023/08/24 07:09:35;;;;;;;26.58;24.45;;;17.30;99.90;;;;;;5012025;28;20051;-78
2023/08/24 07:12:06;;;;;;;25.88;24.00;;;17.50;99.90;;;;;;4998445;28;20049;-78
2023/08/24 07:14:39;;;;;;;28.08;25.45;;;17.60;99.90;;;;;;5022451;28;20040;-78
2023/08/24 07:17:09;;;;;;;28.67;26.23;;;17.60;99.90;;;;;;5035772;28;20053;-80
2023/08/24 07:19:37;;;;;;;28.67;25.95;;;17.70;99.90;;;;;;5019357;28;20041;-78
2023/08/24 07:22:03;;;;;;;25.73;23.42;;;18.00;99.90;;;;;;5009756;28;20049;-77
2023/08/24 07:24:30;;;;;;;23.98;22.27;;;18.30;99.90;;;;;;5021089;28;20079;-78
2023/08/24 07:27:11;;;;;;;25.70;23.58;;;18.40;99.90;;;;;;5019647;28;20103;-78
2023/08/24 07:29:38;;;;;;;26.52;24.45;;;18.60;99.90;;;;;;5012673;28;20029;-78
2023/08/24 07:32:09;;;;;;;25.20;23.23;;;18.70;99.90;;;;;;5019296;28;20040;-78
2023/08/24 07:34:44;;;;;;;23.42;21.60;;;18.80;99.90;;;;;;5021768;28;20124;-78
2023/08/24 07:37:11;;;;;;;26.05;23.90;;;18.80;99.90;;;;;;5012004;28;20046;-78
2023/08/24 07:39:38;;;;;;;26.38;24.17;;;18.90;99.90;;;;;;5043590;28;20041;-79
2023/08/24 07:42:08;;;;;;;26.80;23.95;;;19.00;99.90;;;;;;5020803;28;20042;-78
2023/08/24 07:44:35;;;;;;;27.25;24.88;;;19.20;99.90;;;;;;5027788;28;20053;-77
2023/08/24 07:47:02;;;;;;;27.58;25.55;;;19.40;99.90;;;;;;5012553;28;20045;-78
2023/08/24 07:49:29;;;;;;;26.73;24.65;;;19.50;99.90;;;;;;5032327;28;20824;-78
2023/08/24 07:51:58;;;;;;;27.15;24.95;;;19.50;99.90;;;;;;5009193;28;20106;-79
2023/08/24 07:54:25;;;;;;;26.95;24.55;;;19.70;99.90;;;;;;5019793;28;20049;-77
2023/08/24 07:56:51;;;;;;;28.63;25.92;;;20.00;99.90;;;;;;5014790;28;20045;-77
2023/08/24 07:59:18;;;;;;;28.88;26.25;;;20.20;99.90;;;;;;5028784;28;20612;-77
2023/08/24 08:01:45;;;;;;;28.50;25.77;;;20.10;99.90;;;;;;5020888;28;20087;-78
2023/08/24 08:04:12;;;;;;;28.10;26.00;;;20.10;99.90;;;;;;5023499;28;20540;-78
2023/08/24 08:06:39;;;;;;;28.70;26.50;;;20.20;99.90;;;;;;5020422;28;20071;-78
2023/08/24 08:09:05;;;;;;;29.15;26.98;;;20.40;99.90;;;;;;5025606;28;20045;-78
2023/08/24 08:11:32;;;;;;;28.33;26.15;;;20.40;99.90;;;;;;5036875;28;20055;-78
2023/08/24 08:13:59;;;;;;;26.95;24.90;;;20.70;99.90;;;;;;5008382;28;20121;-76
2023/08/24 08:16:26;;;;;;;27.33;25.00;;;21.00;99.90;;;;;;5017137;28;20038;-77
2023/08/24 08:18:52;;;;;;;25.90;24.30;;;21.60;99.90;;;;;;5016728;28;20046;-77
2023/08/24 08:21:19;;;;;;;24.30;22.80;;;22.20;99.90;;;;;;5015614;28;20033;-78
2023/08/24 08:23:49;;;;;;;26.13;24.27;;;22.40;99.90;;;;;;5038101;28;20041;-78
2023/08/24 08:26:16;;;;;;;25.67;23.63;;;23.20;99.90;;;;;;5019294;28;20037;-78
2023/08/24 08:28:44;;;;;;;25.65;24.00;;;23.90;99.90;;;;;;5021947;28;20677;-77
2023/08/24 08:31:10;;;;;;;26.45;24.50;;;24.00;99.90;;;;;;5019539;28;20168;-77
2023/08/24 08:33:37;;;;;;;25.95;24.13;;;23.90;99.90;;;;;;5039936;28;20047;-78
2023/08/24 08:36:04;;;;;;;25.38;23.60;;;24.40;99.90;;;;;;5028829;28;20098;-77
2023/08/24 08:38:31;;;;;;;25.73;23.98;;;24.50;99.90;;;;;;5011940;28;20121;-77
2023/08/24 08:41:03;;;;;;;26.13;24.33;;;24.70;99.90;;;;;;5031780;28;20063;-77
2023/08/24 08:43:33;;;;;;;26.83;24.50;;;24.70;99.90;;;;;;5030705;28;21070;-78
2023/08/24 08:46:00;;;;;;;27.00;25.10;;;25.20;99.90;;;;;;5038314;28;20060;-79
2023/08/24 08:48:29;;;;;;;28.60;26.80;;;25.20;99.90;;;;;;5037911;28;20104;-78
2023/08/24 08:50:58;;;;;;;27.90;26.13;;;25.30;99.90;;;;;;5032764;28;20075;-78
2023/08/24 08:53:25;;;;;;;29.80;27.50;;;25.30;99.90;;;;;;5034360;28;20056;-78
2023/08/24 08:55:53;;;;;;;29.58;27.48;;;25.20;99.90;;;;;;5042426;28;20084;-78
2023/08/24 08:58:21;;;;;;;29.98;27.85;;;25.40;99.90;;;;;;5042702;28;20065;-78
2023/08/24 09:00:49;;;;;;;29.95;27.55;;;25.50;99.90;;;;;;5040125;28;20426;-78
2023/08/24 09:03:18;;;;;;;28.95;26.70;;;25.60;99.90;;;;;;5042320;28;20048;-78
2023/08/24 09:05:47;;;;;;;29.33;26.98;;;25.60;99.90;;;;;;5047940;28;20044;-78
2023/08/24 09:08:18;;;;;;;29.23;27.05;;;25.70;99.90;;;;;;5035003;28;20075;-79
2023/08/24 09:10:45;;;;;;;29.40;27.50;;;25.40;99.90;;;;;;5039867;28;20033;-78
2023/08/24 09:13:12;;;;;;;28.98;26.80;;;25.40;99.90;;;;;;5037306;28;20135;-78
2023/08/24 09:15:39;;;;;;;30.35;27.92;;;25.40;99.90;;;;;;5039754;28;20109;-79
2023/08/24 09:18:06;;;;;;;30.00;27.80;;;25.60;99.90;;;;;;5045465;28;20049;-78
2023/08/24 09:20:34;;;;;;;30.23;27.75;;;25.70;99.90;;;;;;5034794;28;20076;-80
2023/08/24 09:23:01;;;;;;;29.83;27.65;;;25.80;99.90;;;;;;5014404;28;20140;-78
2023/08/24 09:25:28;;;;;;;29.50;27.52;;;26.20;99.90;;;;;;5040598;28;21413;-78
2023/08/24 09:28:07;;;;;;;29.13;26.90;;;26.60;99.90;;;;;;5041624;28;20041;-78
2023/08/24 09:30:35;;;;;;;29.65;27.48;;;27.00;99.90;;;;;;5036789;28;20044;-78
2023/08/24 09:33:04;;;;;;;30.95;28.70;;;26.70;99.90;;;;;;5019323;28;20220;-79
2023/08/24 09:35:36;;;;;;;29.58;27.48;;;26.50;99.90;;;;;;5037197;28;20044;-77
2023/08/24 09:38:18;;;;;;;28.02;26.15;;;26.80;99.90;;;;;;5036325;28;20049;-78
2023/08/24 09:40:52;;;;;;;29.15;27.00;;;26.90;99.90;;;;;;5038885;28;20132;-78
2023/08/24 09:43:19;;;;;;;31.77;29.23;;;27.10;99.90;;;;;;5034508;28;20235;-77
2023/08/24 09:45:52;;;;;;;31.48;28.98;;;27.40;99.90;;;;;;5019123;28;20049;-79
2023/08/24 09:48:20;;;;;;;29.83;27.45;;;27.50;99.90;;;;;;5039011;28;20048;-77
2023/08/24 09:50:51;;;;;;;31.15;28.70;;;27.10;99.90;;;;;;5035321;28;20048;-78
2023/08/24 09:53:22;;;;;;;30.38;28.17;;;27.20;99.90;;;;;;5037220;28;20041;-78
2023/08/24 09:55:55;;;;;;;30.25;28.15;;;26.90;99.90;;;;;;5044344;28;20714;-78
2023/08/24 09:58:23;;;;;;;31.13;28.52;;;27.10;99.90;;;;;;5032522;28;20083;-78
2023/08/24 10:00:51;;;;;;;32.08;29.50;;;27.50;99.90;;;;;;5039586;28;20111;-78
2023/08/24 10:03:20;;;;;;;30.63;28.45;;;27.20;99.90;;;;;;5040125;28;20045;-79
2023/08/24 10:05:52;;;;;;;31.17;28.88;;;27.30;99.90;;;;;;5058795;28;20415;-77
2023/08/24 10:08:29;;;;;;;30.38;28.27;;;27.40;99.90;;;;;;5030711;28;20507;-78
2023/08/24 10:10:58;;;;;;;32.40;30.10;;;27.90;99.90;;;;;;5035034;28;20045;-79
2023/08/24 10:13:49;;;;;;;30.90;28.30;;;27.70;99.90;;;;;;5035574;28;20100;-78
2023/08/24 10:16:18;;;;;;;31.80;29.42;;;27.60;99.90;;;;;;5034763;28;20124;-78
2023/08/24 10:18:51;;;;;;;32.10;29.85;;;27.40;99.90;;;;;;5043270;28;20072;-78
2023/08/24 10:21:19;;;;;;;31.20;28.73;;;27.40;99.90;;;;;;5044534;28;20046;-78
2023/08/24 10:23:47;;;;;;;30.63;28.48;;;27.00;99.90;;;;;;5040492;28;20053;-78
2023/08/24 10:26:14;;;;;;;31.13;28.92;;;27.30;99.90;;;;;;5039119;28;20068;-78
2023/08/24 10:28:42;;;;;;;31.65;29.35;;;27.50;99.90;;;;;;5033871;28;20811;-79
2023/08/24 10:31:09;;;;;;;30.90;28.80;;;27.50;99.90;;;;;;5026590;28;20605;-79
2023/08/24 10:33:36;;;;;;;31.95;29.48;;;27.50;99.90;;;;;;5046934;28;20045;-78
2023/08/24 10:36:06;;;;;;;30.88;28.65;;;27.80;99.90;;;;;;5027257;28;20049;-78
2023/08/24 10:38:39;;;;;;;30.77;28.52;;;27.90;99.90;;;;;;5024259;28;20110;-78
2023/08/24 10:41:06;;;;;;;30.65;28.33;;;27.90;99.90;;;;;;5042195;28;20049;-77
2023/08/24 10:43:50;;;;;;;30.98;28.88;;;27.70;99.90;;;;;;5037104;28;20511;-78
2023/08/24 10:46:16;;;;;;;31.50;29.30;;;27.80;99.90;;;;;;5046148;28;20428;-78
2023/08/24 10:48:44;;;;;;;33.55;30.75;;;27.90;99.90;;;;;;5042902;28;20037;-78
2023/08/24 10:51:16;;;;;;;33.00;30.67;;;27.80;99.90;;;;;;5049979;28;20575;-78
2023/08/24 10:53:50;;;;;;;31.23;29.15;;;27.70;99.90;;;;;;5047182;28;20060;-77
2023/08/24 10:56:18;;;;;;;33.05;30.20;;;27.20;99.90;;;;;;5063474;28;20533;-78
2023/08/24 10:58:46;;;;;;;32.10;29.75;;;27.40;99.90;;;;;;5046367;28;20111;-78
2023/08/24 11:01:19;;;;;;;29.85;27.85;;;27.40;99.90;;;;;;5042974;28;20059;-79
2023/08/24 11:03:50;;;;;;;31.48;29.25;;;27.60;99.90;;;;;;5045669;28;20044;-78
2023/08/24 11:06:25;;;;;;;30.23;28.02;;;27.40;99.90;;;;;;5048164;28;20112;-78
2023/08/24 11:09:13;;;;;;;31.83;29.42;;;27.80;99.90;;;;;;5064301;28;20249;-78
2023/08/24 11:11:41;;;;;;;31.67;29.15;;;27.90;99.90;;;;;;5041024;28;20079;-78
2023/08/24 11:14:29;;;;;;;31.30;29.20;;;27.90;99.90;;;;;;5061936;28;20040;-78
2023/08/24 11:17:45;;;;;;;32.88;30.27;;;27.70;99.90;;;;;;5051817;28;20040;-74
2023/08/24 11:19:54;;;;;;;30.17;28.17;;;27.50;99.90;;;;;;5030325;28;20052;-78
2023/08/24 11:22:21;;;;;;;30.77;28.55;;;27.50;99.90;;;;;;5029152;28;20052;-77
2023/08/24 11:24:48;;;;;;;30.05;27.77;;;27.40;99.90;;;;;;5031000;28;20048;-75
2023/08/24 11:27:16;;;;;;;31.27;28.83;;;27.00;99.90;;;;;;5031205;28;21063;-79
2023/08/24 11:29:43;;;;;;;29.67;27.50;;;27.00;99.90;;;;;;5046139;28;20064;-78
2023/08/24 11:32:10;;;;;;;29.33;27.30;;;27.00;99.90;;;;;;5026492;28;20207;-78
2023/08/24 11:34:37;;;;;;;30.00;27.60;;;27.20;99.90;;;;;;5032007;28;20056;-79
2023/08/24 11:37:04;;;;;;;29.10;26.92;;;27.10;99.90;;;;;;5049748;28;20044;-79
2023/08/24 11:39:32;;;;;;;29.25;27.20;;;27.40;99.90;;;;;;5052985;28;20044;-78
2023/08/24 11:42:03;;;;;;;29.83;27.58;;;27.30;99.90;;;;;;5020507;28;20048;-78
2023/08/24 11:44:44;;;;;;;31.08;28.75;;;27.10;99.90;;;;;;5005121;28;20052;-78
2023/08/24 11:47:11;;;;;;;30.95;28.55;;;27.00;99.90;;;;;;5032494;28;20107;-78
2023/08/24 11:49:38;;;;;;;31.02;28.73;;;27.20;99.90;;;;;;4999299;28;20049;-79
2023/08/24 11:52:05;;;;;;;30.63;28.38;;;27.00;99.90;;;;;;5024474;28;20041;-78
2023/08/24 11:54:38;;;;;;;30.58;28.13;;;26.90;99.90;;;;;;5032232;28;20116;-77
2023/08/24 11:57:08;;;;;;;30.40;28.23;;;26.70;99.90;;;;;;5032609;28;20049;-78
2023/08/24 11:59:38;;;;;;;30.80;28.77;;;26.60;99.90;;;;;;5013957;28;20052;-79
2023/08/24 12:02:05;;;;;;;30.08;27.88;;;26.50;99.90;;;;;;5016467;28;20048;-80
2023/08/24 12:04:39;;;;;;;30.63;28.23;;;26.80;99.90;;;;;;5017110;28;20102;-80
2023/08/24 12:07:11;;;;;;;28.90;26.92;;;26.90;99.90;;;;;;5029846;28;20052;-79
2023/08/24 12:09:40;;;;;;;29.85;27.75;;;26.90;99.90;;;;;;5015334;28;20061;-80
2023/08/24 12:12:18;;;;;;;29.80;27.60;;;27.20;99.90;;;;;;4996986;28;20042;-79
2023/08/24 12:14:46;;;;;;;30.40;27.95;;;27.50;99.90;;;;;;5020996;28;20041;-79
2023/08/24 12:17:14;;;;;;;30.00;27.73;;;27.70;99.90;;;;;;5005543;28;20046;-79
2023/08/24 12:19:43;;;;;;;29.70;27.45;;;27.40;99.90;;;;;;5030442;28;20051;-80
2023/08/24 12:22:19;;;;;;;30.70;28.40;;;27.10;99.90;;;;;;5034407;28;20053;-79
2023/08/24 12:24:46;;;;;;;29.85;27.52;;;26.80;99.90;;;;;;5029130;28;20041;-80
2023/08/24 12:27:20;;;;;;;29.85;27.70;;;26.90;99.90;;;;;;5018616;28;20036;-81
2023/08/24 12:29:47;;;;;;;30.35;28.38;;;27.10;99.90;;;;;;5018214;28;21909;-82
2023/08/24 12:32:20;;;;;;;30.80;28.55;;;27.20;99.90;;;;;;5018104;28;20102;-79
2023/08/24 12:34:47;;;;;;;29.83;27.83;;;27.30;99.90;;;;;;5018151;28;20048;-79
2023/08/24 12:37:13;;;;;;;30.52;28.52;;;27.40;99.90;;;;;;5032403;28;20057;-79